METAR AND TAF INFORMATION
METAR FOR LTAC
ADDS - METARS form results

(1910 UTC 18 December 2018)
Data provider http://aviationweather.gov/metar/data/
 
METAR text: LTAC 181850Z 05012KT 9999 -RA BKN025 BKN080 06/04 Q1014 NOSIG RMK RWY21L 02005KT RWY03L 04009KT RWY21R 03010KT
Conditions at: LTAC (ANKARA/ESENBOGA , TR) observed 1850 UTC 18 December 2018
Temperature: 6.0°C (43°F)
Dewpoint: 4.0°C (39°F) [RH = 87%]
Pressure (altimeter): 29.94 inches Hg (1014.0 mb)
Winds: from the NE (50 degrees) at 14 MPH (12 knots; 6.2 m/s)
Visibility: 6 or more miles (10+ km)
Ceiling: 2500 feet AGL
Clouds: broken clouds at 2500 feet AGL
broken clouds at 8000 feet AGL
Weather: -RA  (light rain)

METAR text: LTAC 181820Z 04013KT 9999 -RA BKN025 BKN080 06/04 Q1015 NOSIG RMK RWY21L 04008KT RWY03L 04012KT RWY21R 04009KT
Conditions at: LTAC (ANKARA/ESENBOGA , TR) observed 1820 UTC 18 December 2018
Temperature: 6.0°C (43°F)
Dewpoint: 4.0°C (39°F) [RH = 87%]
Pressure (altimeter): 29.97 inches Hg (1015.0 mb)
Winds: from the NE (40 degrees) at 15 MPH (13 knots; 6.7 m/s)
Visibility: 6 or more miles (10+ km)
Ceiling: 2500 feet AGL
Clouds: broken clouds at 2500 feet AGL
broken clouds at 8000 feet AGL
Weather: -RA  (light rain)

Forecast for: LTAC (ANKARA/ESENBOGA , TR)
Text: TAF LTAC 181640Z 1818/1918 05008KT 8000 -RA BKN025 BKN080
Forecast period: 1800 UTC 18 December 2018 to 1800 UTC 19 December 2018
Forecast type: FROM: standard forecast or significant change
Winds: from the NE (50 degrees) at 9 MPH (8 knots; 4.1 m/s)
Visibility: 5 miles (8 km)
Ceiling: 2500 feet AGL
Clouds: broken clouds at 2500 feet AGL
broken clouds at 8000 feet AGL
Weather: -RA  (light rain)

 AIRPORT MAP

 RUNWAY INFORMATION
Runway 03L Runway length 12303 ft Runway width 148 ft
Runway elevation 3100 ft Runway displaced threshold 1148 ft Runway heading 36
Runway 21R Runway length 12303 ft Runway width 148 ft
Runway elevation 3123 ft Runway displaced threshold 0 ft Runway heading 216
Runway 03R Runway length 12303 ft Runway width 197 ft
Runway elevation 3097 ft Runway displaced threshold 0 ft Runway heading 35
Runway 21L Runway length 12303 ft Runway width 197 ft
Runway elevation 3125 ft Runway displaced threshold 0 ft Runway heading 215

 AIRPORT FREQUENCIES
Type APP Name APP Frequency 119.1 MHZ
Type ATIS Name ATIS Frequency 123.6 MHZ
Type GND Name GND Frequency 121.9 MHZ
Type TWR Name TWR Frequency 118.1 MHZ

 AIRPORT NEAR NAVIGATION AIDS
Type VOR-DME Name Cubuk Frequency 114300 KHZ



Copyright © 2007-2018 Istanbul Virtual Airlines.All rights reserved.Developed by Arca Erdik and Aykut Alp Kurt.